Terminal Aerodrome Forecast
Issued by NWS

Home | Current Version | Previous Version | Text Only | Print | Product List | Glossary Off
Versions: 1 2 3 4 5 6 7 8 9 10 11 12 13 14 15 16

917
FTUS41 KCLE 221122
TAFFDY
TAF
KFDY 221122Z 2212/2312 29005KT P6SM SKC
     FM221900 VRB03KT P6SM SKC
     FM230600 19005KT P6SM SKC=

USA.gov is the U.S. government's official web portal to all federal, state and local government web resources and services.